• Join FlightAware (Why Join?)
  • Login
  • US Flag 
02:18PM EDT


 

Airport Tracker/Info


-or-


 

Live Flight TrackerFlight Track Log ✈ SWA407 ✈ 05-May-2013 ✈ KATL - KSFO

Flight Track Log - Related Links

Times and Time Zones

All times are in EDT time to prevent confusion due to time zone crossing. See the SWA407 flight status page for this flight to view local times or setup timezone preferences in your user account.

Time Position Orientation Groundspeed Altitude Reporting Facility
EDT Latitude Longitude Course Direction KTS MPH feet Rate Location/Type
05:31PM 33.6500 -84.4500 270° West 172 198 2,400  Level Atlanta TRACON
05:32PM 33.6667 -84.5333 284° West 235 270 4,700 2,640 Climbing Atlanta TRACON
05:33PM 33.6833 -84.6167 284° West 280 322 7,700 2,460 Climbing Atlanta TRACON
05:35PM 33.7103 -84.8431 278° West 337 388 13,000 2,640 Climbing Atlanta Center
05:36PM 33.7303 -84.9731 281° West 359 413 16,500 3,360 Climbing Atlanta Center
05:37PM 33.8001 -84.7509 270° West  Level FlightAware Approximate
05:37PM 33.7461 -85.0806 280° West 350 403 19,800  Level Atlanta Center
05:38PM 33.7639 -85.1958 281° West 345 397 21,200 1,500 Climbing Atlanta Center
05:39PM 33.7833 -85.3236 280° West 373 429 22,900 2,040 Climbing Atlanta Center
05:40PM 33.8069 -85.4539 282° West 400 460 25,300 2,040 Climbing Atlanta Center
05:41PM 33.8283 -85.5817 281° West 400 460 27,000 1,380 Climbing Atlanta Center
05:42PM 33.8600 -85.7150 286° West 400 460 28,100 960 Climbing Atlanta Center
05:43PM 33.8961 -85.8331 290° West 412 474 29,000 1,140 Climbing Atlanta Center
05:44PM 33.9419 -85.9719 292° West 427 491 30,400 1,440 Climbing Atlanta Center
05:45PM 33.9856 -86.1131 290° West 442 509 31,900 1,560 Climbing Atlanta Center
05:46PM 34.0269 -86.2519 290° West 442 509 33,600 1,500 Climbing Atlanta Center
05:47PM 34.0642 -86.3883 288° West 442 509 35,000 1,200 Climbing Atlanta Center
05:48PM 34.1011 -86.5275 288° West 442 509 36,000 480 Climbing Atlanta Center
05:49PM 34.1406 -86.6631 289° West 436 502 36,000  Level Memphis Center
05:50PM 34.1781 -86.8022 288° West 436 502 36,000  Level Memphis Center
05:51PM 34.2175 -86.9461 288° West 430 495 36,000  Level Memphis Center
05:52PM 34.2544 -87.0778 289° West 425 489 36,000  Level Memphis Center
05:53PM 34.2981 -87.2269 290° West 442 509 36,000  Level Memphis Center
05:54PM 34.3347 -87.3639 288° West 442 509 36,000  Level Memphis Center
05:55PM 34.3692 -87.4886 289° West 436 502 36,000  Level Memphis Center
05:56PM 34.4056 -87.6258 288° West 436 502 36,000  Level Memphis Center
05:57PM 34.4439 -87.7656 288° West 436 502 36,000  Level Memphis Center
05:58PM 34.4803 -87.9056 288° West 436 502 36,000  Level Memphis Center
05:59PM 34.5203 -88.0406 290° West 436 502 36,000  Level Memphis Center
06:00PM 34.5586 -88.2008 286° West 436 502 36,000  Level Memphis Center
06:01PM 34.5967 -88.3411 288° West 441 507 36,000  Level Memphis Center
06:02PM 34.6322 -88.4817 287° West 441 507 36,000  Level Memphis Center
06:03PM 34.6675 -88.6122 288° West 427 491 36,000  Level Memphis Center
06:04PM 34.7028 -88.7581 286° West 427 491 36,000  Level Memphis Center
06:05PM 34.7400 -88.8964 288° West 432 497 36,000  Level Memphis Center
06:06PM 34.7769 -89.0372 288° West 437 503 36,000  Level Memphis Center
06:07PM 34.8139 -89.1758 288° West 432 497 36,000  Level Memphis Center
06:08PM 34.8486 -89.3119 287° West 432 497 36,000  Level Memphis Center
06:09PM 34.8831 -89.4508 287° West 432 497 36,000  Level Memphis Center
06:10PM 34.9194 -89.5897 288° West 432 497 36,000  Level Memphis Center
06:11PM 34.9453 -89.7211 284° West 437 503 36,000  Level Memphis Center
06:12PM 34.9939 -89.8756 291° West 444 511 36,000  Level Memphis Center
06:13PM 35.0278 -90.0172 286° West 444 511 36,000  Level Memphis Center
06:14PM 35.0719 -90.1567 291° West 438 504 36,000  Level Memphis Center
06:15PM 35.1136 -90.2936 290° West 438 504 36,000  Level Memphis Center
06:16PM 35.1575 -90.4333 291° West 438 504 36,000  Level Memphis Center
06:17PM 35.2033 -90.5706 292° West 443 510 36,000  Level Memphis Center
06:18PM 35.2383 -90.6953 289° West 443 510 36,000  Level Memphis Center
06:19PM 35.2819 -90.8328 291° West 443 510 36,000  Level Memphis Center
06:20PM 35.3272 -90.9706 292° West 443 510 36,000  Level Memphis Center
06:21PM 35.3681 -91.1056 290° West 435 501 36,000  Level Memphis Center
06:22PM 35.4089 -91.2411 290° West 430 495 36,000  Level Memphis Center
06:23PM 35.4517 -91.3792 291° West 435 501 36,000  Level Memphis Center
06:24PM 35.4903 -91.5122 290° West 428 493 36,000  Level Memphis Center
06:25PM 35.5328 -91.6453 291° West 428 493 36,000  Level Memphis Center
06:26PM 35.5728 -91.7814 290° West 428 493 36,000  Level Memphis Center
06:27PM 35.6131 -91.9122 291° West 423 487 36,000  Level Memphis Center
06:28PM 35.6489 -92.0458 288° West 423 487 36,000  Level Memphis Center
06:29PM 35.6889 -92.1719 291° West 411 473 36,000  Level Memphis Center
06:30PM 35.7264 -92.3031 289° West 406 467 36,000  Level Memphis Center
06:31PM 35.7639 -92.4319 290° West 406 467 36,000  Level Memphis Center
06:32PM 35.8014 -92.5581 290° West 406 467 36,000  Level Memphis Center
06:33PM 35.8389 -92.6847 290° West 406 467 36,000  Level Memphis Center
06:34PM 35.8819 -92.8294 290° West 406 467 36,000  Level Memphis Center
06:35PM 35.9189 -92.9611 289° West 406 467 36,000  Level Memphis Center
06:36PM 35.9556 -93.0931 289° West 412 474 36,000  Level Memphis Center
06:37PM 35.9903 -93.2175 289° West 407 468 36,000  Level Memphis Center
06:38PM 36.0186 -93.3492 285° West 402 463 36,000  Level Memphis Center
06:39PM 36.0425 -93.4783 283° West 402 463 36,000  Level Memphis Center
06:40PM 36.0683 -93.6131 283° West 397 457 36,000  Level Memphis Center
06:41PM 36.0961 -93.7450 285° West 397 457 36,000  Level Memphis Center
06:42PM 36.1214 -93.8772 283° West 397 457 36,000  Level Memphis Center
06:43PM 36.1469 -94.0119 283° West 397 457 36,000  Level Memphis Center
06:44PM 36.1725 -94.1314 285° West 397 457 36,000  Level Memphis Center
06:45PM 36.1994 -94.2664 284° West 397 457 36,000  Level Memphis Center
06:46PM 36.2222 -94.4039 282° West 397 457 36,000  Level Memphis Center
06:48PM 36.2667 -94.6181 284° West 402 463 36,000  Level Kansas City Center
06:49PM 36.2919 -94.7539 283° West 403 464 36,000  Level Kansas City Center
06:50PM 36.3217 -94.9158 283° West 401 461 36,000  Level Kansas City Center
06:51PM 36.3461 -95.0503 283° West 400 460 36,000  Level Kansas City Center
06:52PM 36.3681 -95.1711 283° West 395 455 36,000  Level Kansas City Center
06:53PM 36.3925 -95.3047 283° West 396 456 36,000  Level Kansas City Center
06:54PM 36.4206 -95.4653 282° West 397 457 36,000  Level Kansas City Center
06:55PM 36.4442 -95.5986 282° West 397 457 36,000  Level Kansas City Center
06:56PM 36.4694 -95.7328 283° West 398 458 36,000  Level Kansas City Center
06:57PM 36.4944 -95.8703 283° West 401 461 36,000  Level Kansas City Center
06:58PM 36.5178 -96.0028 282° West 397 457 36,000  Level Kansas City Center
06:59PM 36.5417 -96.1356 283° West 394 453 36,000  Level Kansas City Center
07:00PM 36.5642 -96.2689 282° West 394 453 36,000  Level Kansas City Center
07:02PM 36.5919 -96.4289 282° West 394 453 36,000  Level Kansas City Center
07:03PM 36.6150 -96.5617 282° West 393 452 36,000  Level Kansas City Center
07:04PM 36.6375 -96.6944 282° West 393 452 36,000  Level Kansas City Center
07:05PM 36.6597 -96.8281 282° West 392 451 36,000  Level Kansas City Center
07:06PM 36.6822 -96.9611 282° West 393 452 36,000 480 Level Kansas City Center
07:07PM 36.7069 -97.1139 281° West 395 455 37,000 960 Climbing Kansas City Center
07:08PM 36.7294 -97.2467 282° West 394 453 38,000 480 Climbing Kansas City Center
07:09PM 36.7506 -97.3814 281° West 397 457 38,000  Level Kansas City Center
07:10PM 36.7722 -97.5128 282° West 400 460 38,000  Level Kansas City Center
07:11PM 36.7942 -97.6508 281° West 402 463 38,000  Level Kansas City Center
07:12PM 36.8153 -97.7892 281° West 405 466 38,000  Level Kansas City Center
07:13PM 36.8417 -97.9533 281° West 403 464 38,000  Level Kansas City Center
07:14PM 36.8636 -98.0947 281° West 403 464 38,000  Level Kansas City Center
07:15PM 36.8850 -98.2289 281° West 402 463 38,000  Level Kansas City Center
07:16PM 36.9058 -98.3711 280° West 407 468 38,000  Level Kansas City Center
07:17PM 36.9275 -98.5083 281° West 407 468 38,000  Level Kansas City Center
07:18PM 36.9483 -98.6444 281° West 400 460 38,000  Level Kansas City Center
07:19PM 36.9681 -98.7806 280° West 398 458 38,000  Level Kansas City Center
07:20PM 36.9883 -98.9158 281° West 397 457 38,000  Level Kansas City Center
07:21PM 37.0131 -99.0769 281° West 393 452 38,000  Level Kansas City Center
07:22PM 37.0308 -99.2106 280° West 391 450 38,000  Level Kansas City Center
07:23PM 37.0517 -99.3469 281° West 396 456 38,000  Level Kansas City Center
07:24PM 37.0739 -99.4994 280° West 400 460 38,000  Level Kansas City Center
07:25PM 37.0925 -99.6303 280° West 400 460 38,000  Level Kansas City Center
07:26PM 37.1108 -99.7628 280° West 402 463 38,000  Level Kansas City Center
07:27PM 37.1325 -99.9175 280° West 403 464 38,000  Level Kansas City Center
07:28PM 37.1519 -100.0489 281° West 401 461 38,000  Level Kansas City Center
07:29PM 37.1739 -100.2019 280° West 399 459 38,000  Level Kansas City Center
07:30PM 37.1917 -100.3325 280° West 398 458 38,000  Level Kansas City Center
07:31PM 37.2128 -100.4844 280° West 396 456 38,000  Level Kansas City Center
07:32PM 37.2303 -100.6139 280° West 393 452 38,000  Level Kansas City Center
07:33PM 37.2475 -100.7458 279° West 396 456 38,000  Level Kansas City Center
07:34PM 37.2686 -100.8992 280° West 397 457 38,000  Level Kansas City Center
07:36PM 37.2853 -101.0317 279° West 398 458 38,000  Level Kansas City Center
07:37PM 37.3050 -101.1861 279° West 399 459 38,000  Level Kansas City Center
07:38PM 37.3222 -101.3175 279° West 397 457 38,000  Level Kansas City Center
07:39PM 37.3389 -101.4481 279° West 395 455 38,000  Level Kansas City Center
07:40PM 37.3686 -101.6883 279° West 395 455 38,000  Level Kansas City Center
07:41PM 37.3847 -101.8175 279° West 393 452 38,000  Level Kansas City Center
07:42PM 37.4031 -101.9683 279° West 390 449 38,000  Level Kansas City Center
07:43PM 37.4086 -102.0119 279° West 391 450 38,000  Level Denver Center
07:44PM 37.4256 -102.1419 279° West 392 451 38,000  Level Denver Center
07:45PM 37.4433 -102.2931 278° West 391 450 38,000  Level Denver Center
07:46PM 37.4586 -102.4242 278° West 394 453 38,000  Level Denver Center
07:47PM 37.4742 -102.5578 278° West 392 451 38,000  Level Denver Center
07:48PM 37.4919 -102.7111 278° West 395 455 38,000  Level Denver Center
07:49PM 37.5072 -102.8431 278° West 396 456 38,000  Level Denver Center
07:50PM 37.5250 -102.9978 278° West 399 459 38,000  Level Denver Center
07:51PM 37.5397 -103.1297 278° West 399 459 38,000  Level Denver Center
07:52PM 37.5567 -103.2828 278° West 395 455 38,000  Level Denver Center
07:53PM 37.5731 -103.4339 278° West 390 449 38,000  Level Denver Center
07:54PM 37.5900 -103.5847 278° West 388 447 38,000  Level Denver Center
07:55PM 37.6036 -103.7133 278° West 387 445 38,000  Level Denver Center
07:56PM 37.6200 -103.8642 278° West 392 451 38,000  Level Denver Center
07:57PM 37.6356 -104.0139 278° West 394 453 38,000  Level Denver Center
07:58PM 37.6475 -104.1408 277° West 390 449 38,000  Level Denver Center
07:59PM 37.6628 -104.2911 277° West 389 448 38,000  Level Denver Center
08:00PM 37.6764 -104.4214 278° West 393 452 38,000  Level Denver Center
08:01PM 37.6914 -104.5742 277° West 393 452 38,000  Level Denver Center
08:02PM 37.7050 -104.7069 277° West 397 457 38,000  Level Denver Center
08:04PM 37.7197 -104.8608 277° West 397 457 38,000  Level Denver Center
08:05PM 37.7333 -104.9922 278° West 394 453 38,000  Level Denver Center
08:06PM 37.7450 -105.1239 276° West 394 453 38,000  Level Denver Center
08:07PM 37.7589 -105.2794 276° West 399 459 38,000  Level Denver Center
08:08PM 37.7706 -105.4108 276° West 395 455 38,000  Level Denver Center
08:09PM 37.7819 -105.5867 275° West 394 453 38,000  Level Denver Center
08:10PM 37.7914 -105.7400 275° West 391 450 38,000  Level Denver Center
08:11PM 37.8014 -105.8700 276° West 390 449 38,000  Level Denver Center
08:12PM 37.8103 -106.0008 275° West 390 449 38,000  Level Denver Center
08:13PM 37.8206 -106.1522 275° West 388 447 38,000  Level Denver Center
08:14PM 37.8281 -106.2839 274° West 391 450 38,000  Level Denver Center
08:15PM 37.8381 -106.4372 275° West 392 451 38,000  Level Denver Center
08:16PM 37.8464 -106.5661 275° West 395 455 38,000  Level Denver Center
08:17PM 37.8561 -106.7206 275° West 394 453 38,000  Level Denver Center
08:18PM 37.8647 -106.8547 275° West 400 460 38,000  Level Denver Center
08:19PM 37.8725 -107.0100 274° West 397 457 38,000  Level Denver Center
08:20PM 37.8789 -107.1222 274° West 400 460 38,000  Level Denver Center
08:21PM 37.8892 -107.2956 274° West 400 460 38,000  Level Denver Center
08:22PM 37.8958 -107.4283 274° West 397 457 38,000  Level Denver Center
08:23PM 37.9042 -107.5836 274° West 397 457 38,000  Level Denver Center
08:24PM 37.9119 -107.7189 274° West 400 460 38,000  Level Denver Center
08:25PM 37.9194 -107.8753 274° West 400 460 38,000  Level Denver Center
08:26PM 37.9264 -108.0083 274° West 398 458 38,000  Level Denver Center
08:27PM 37.9347 -108.1642 274° West 398 458 38,000  Level Denver Center
08:28PM 37.9403 -108.3003 273° West 402 463 38,000  Level Denver Center
08:30PM 37.9533 -108.5781 273° West 401 461 38,000  Level Salt Lake Center
08:31PM 37.9542 -108.5942 274° West 405 466 38,000  Level Denver Center
08:32PM 37.9617 -108.7739 273° West 402 463 38,000  Level Denver Center
08:33PM 37.9669 -108.9094 273° West 402 463 38,000  Level Denver Center
08:34PM 37.9742 -109.0686 273° West 406 467 38,000  Level Denver Center
08:35PM 37.9797 -109.2047 273° West 406 467 38,000  Level Denver Center
08:36PM 37.9856 -109.3639 273° West 405 466 38,000  Level Denver Center
08:37PM 37.9906 -109.5006 273° West 405 466 38,000  Level Denver Center
08:38PM 37.9956 -109.6383 273° West 408 470 38,000  Level Denver Center
08:39PM 38.0011 -109.7975 273° West 406 467 38,000  Level Denver Center
08:40PM 38.0061 -109.9356 273° West 408 470 38,000  Level Denver Center
08:41PM 38.0103 -110.0947 272° West 406 467 38,000  Level Denver Center
08:42PM 38.0144 -110.2311 272° West 405 466 38,000  Level Denver Center
08:43PM 38.0197 -110.3839 273° West 408 470 38,000  Level Denver Center
08:44PM 38.0236 -110.5217 272° West 409 471 38,000  Level Denver Center
08:45PM 38.0283 -110.6839 272° West 412 474 38,000  Level Denver Center
08:46PM 38.0311 -110.8214 272° West 409 471 38,000  Level Denver Center
08:47PM 38.0347 -110.9742 272° West 409 471 38,000  Level Denver Center
08:48PM 38.0392 -111.1181 272° West 409 471 38,000  Level Denver Center
08:49PM 38.0422 -111.2047 273° West 409 471 38,000  Level Salt Lake Center
08:50PM 38.0458 -111.3767 272° West 407 468 38,000  Level Salt Lake Center
08:51PM 38.0486 -111.5194 271° West 405 466 38,000  Level Salt Lake Center
08:52PM 38.0508 -111.6653 271° West 413 475 38,000  Level Salt Lake Center
08:53PM 38.0539 -111.8092 272° West 411 473 38,000  Level Salt Lake Center
08:54PM 38.0561 -111.9536 271° West 411 473 38,000  Level Salt Lake Center
08:55PM 38.0586 -112.0989 271° West 413 475 38,000  Level Salt Lake Center
08:56PM 38.0614 -112.2442 271° West 414 476 38,000  Level Salt Lake Center
08:57PM 38.0631 -112.4200 271° West 418 481 38,000  Level Salt Lake Center
08:58PM 38.0636 -112.5658 270° West 418 481 38,000  Level Salt Lake Center
08:59PM 38.0653 -112.7128 271° West 420 483 38,000  Level Salt Lake Center
09:00PM 38.0667 -112.8600 271° West 421 484 38,000  Level Salt Lake Center
09:01PM 38.0667 -113.0086 270° West 424 488 38,000  Level Salt Lake Center
09:02PM 38.0664 -113.1581 270° West 426 490 38,000  Level Salt Lake Center
09:03PM 38.0675 -113.3375 271° West 427 491 38,000  Level Salt Lake Center
09:04PM 38.0686 -113.4858 271° West 426 490 38,000  Level Salt Lake Center
09:05PM 38.0692 -113.6356 270° West 426 490 38,000  Level Salt Lake Center
09:06PM 38.0689 -113.7850 270° West 427 491 38,000  Level Salt Lake Center
09:07PM 38.0683 -113.9358 270° West 429 494 38,000  Level Salt Lake Center
09:08PM 38.0689 -114.0839 270° West 423 487 38,000  Level Salt Lake Center
09:09PM 38.0681 -114.2325 270° West 423 487 38,000  Level Salt Lake Center
09:10PM 38.0678 -114.3803 270° West 421 484 38,000  Level Salt Lake Center
09:11PM 38.0667 -114.5583 270° West 421 484 38,000  Level Salt Lake Center
09:12PM 38.0664 -114.7061 270° West 420 483 38,000  Level Salt Lake Center
09:14PM 38.0642 -114.8536 269° West 421 484 38,000  Level Salt Lake Center
09:15PM 38.0636 -115.0086 270° West 415 478 38,000  Level Salt Lake Center
09:16PM 38.0608 -115.1519 269° West 408 470 38,000  Level Salt Lake Center
09:17PM 38.0603 -115.2969 270° West 410 472 38,000  Level Salt Lake Center
09:18PM 38.0581 -115.4403 269° West 407 468 38,000  Level Salt Lake Center
09:19PM 38.0553 -115.5861 269° West 411 473 38,000  Level Salt Lake Center
09:20PM 38.0539 -115.7294 269° West 408 470 38,000  Level Salt Lake Center
09:21PM 38.0508 -115.8736 269° West 409 471 38,000  Level Salt Lake Center
09:22PM 38.0481 -116.0181 269° West 410 472 38,000  Level Salt Lake Center
09:23PM 38.1094 -116.1625 298° West 422 486 38,000  Level Salt Lake Center
09:23PM 38.1319 -116.1775 332° Northwest 432 497 38,000  Level Oakland Center
09:24PM 38.2044 -116.2519 321° Northwest 429 494 38,000  Level Salt Lake Center
09:25PM 38.2069 -116.3939 271° West 406 467 38,000  Level Salt Lake Center
09:25PM 38.1986 -116.4511 260° West 407 468 38,000  Level Oakland Center
09:26PM 38.1786 -116.5936 260° West 409 471 38,000  Level Oakland Center
09:27PM 38.1586 -116.7367 260° West 411 473 38,000  Level Oakland Center
09:29PM 38.1250 -116.9661 260° West 412 474 38,000  Level Salt Lake Center
09:29PM 38.1172 -117.0231 260° West 411 473 38,000  Level Oakland Center
09:30PM 38.0972 -117.1547 259° West 411 473 38,000  Level Oakland Center
09:31PM 38.0725 -117.3175 259° West 409 471 38,000  Level Oakland Center
09:32PM 38.0511 -117.4592 259° West 405 466 38,000  Level Oakland Center
09:33PM 38.0292 -117.6014 259° West 408 470 38,000  Level Oakland Center
09:34PM 38.0078 -117.7417 259° West 407 468 38,000  Level Oakland Center
09:35PM 37.9919 -117.8822 262° West 404 465 38,000  Level Oakland Center
09:36PM 37.9767 -118.0233 262° West 404 465 38,000  Level Oakland Center
09:37PM 37.9611 -118.1647 262° West 403 464 38,000  Level Oakland Center
09:38PM 37.9456 -118.3069 262° West 406 467 38,000  Level Oakland Center
09:39PM 37.9308 -118.4489 263° West 406 467 38,000  Level Oakland Center
09:40PM 37.9147 -118.5933 262° West 412 474 38,000 -180 Level Oakland Center
09:41PM 37.8958 -118.7619 262° West 406 467 37,700 -660 Descending Oakland Center
09:42PM 37.8800 -118.9036 262° West 405 466 36,700 -1,020 Descending Oakland Center
09:43PM 37.8628 -119.0503 262° West 409 471 35,700 -1,020 Descending Oakland Center
09:45PM 37.8456 -119.1928 261° West 411 473 34,700 -840 Descending Oakland Center
09:46PM 37.8292 -119.3353 262° West 410 472 34,000 -360 Descending Oakland Center
09:47PM 37.8117 -119.4808 261° West 416 479 34,000  Level Oakland Center
09:48PM 37.7956 -119.6236 262° West 412 474 34,000  Level Oakland Center
09:49PM 37.7781 -119.7661 261° West 411 473 34,000  Level Oakland Center
09:50PM 37.7611 -119.9103 262° West 413 475 34,000 -240 Level Oakland Center
09:51PM 37.7425 -120.0561 261° West 417 480 33,600 -1,260 Descending Oakland Center
09:52PM 37.7244 -120.2081 262° West 429 494 31,500 -2,520 Descending Oakland Center
09:53PM 37.7033 -120.3700 261° West 454 522 28,500 -2,520 Descending Oakland Center
09:54PM 37.6844 -120.5203 261° West 444 511 26,400 -2,100 Descending Oakland Center
09:55PM 37.6669 -120.6597 261° West 417 480 24,300 -2,340 Descending Oakland Center
09:55PM 37.6500 -120.7333 254° West 392 451 22,900 -2,700 Descending Northern Cal TRACON
09:56PM 37.6333 -120.8833 262° West 380 437 20,300 -2,580 Descending Northern Cal TRACON
09:57PM 37.6167 -121.0000 260° West 374 430 17,800 -2,640 Descending Northern Cal TRACON
09:58PM 37.6000 -121.1333 261° West 368 423 15,100 -1,800 Descending Northern Cal TRACON
09:59PM 37.6000 -121.2500 270° West 340 391 14,200 -1,620 Descending Northern Cal TRACON
10:00PM 37.6333 -121.3500 293° West 346 398 11,900 -2,040 Descending Northern Cal TRACON
10:01PM 37.6833 -121.4500 302° West 324 373 10,200 -1,500 Descending Northern Cal TRACON
10:02PM 37.7333 -121.5333 307° West 319 367 9,000 -600 Descending Northern Cal TRACON
10:03PM 37.7500 -121.6333 282° West 279 321 9,000  Level Northern Cal TRACON
10:04PM 37.7833 -121.7333 293° West 267 307 9,000 -240 Level Northern Cal TRACON
10:05PM 37.8167 -121.8167 297° West 271 312 8,600 -480 Descending Northern Cal TRACON
10:06PM 37.8333 -121.9167 282° West 254 292 8,100 -360 Descending Northern Cal TRACON
10:07PM 37.8478 -121.9500 299° West 262 302 8,000 -540 Descending Oakland Center
10:08PM 37.8661 -122.0239 287° West 232 267 7,200 -540 Descending Oakland Center
10:09PM 37.8853 -122.1114 286° West 220 253 7,000 -300 Descending Oakland Center
10:10PM 37.8439 -122.1600 223° Southwest 204 235 6,600 -720 Descending Oakland Center
10:11PM 37.8000 -122.1961 213° Southwest 193 222 5,600 -900 Descending Oakland Center
10:12PM 37.7608 -122.2369 220° Southwest 185 213 4,800 -1,020 Descending Oakland Center
10:13PM 37.7250 -122.2706 217° Southwest 168 193 3,600 -1,380 Descending Oakland Center
10:14PM 37.6911 -122.3050 219° Southwest 160 184 2,100 -1,380 Descending Oakland Center
10:15PM 37.6594 -122.3408 222° Southwest 157 181 800 -960 Descending Oakland Center
10:16PM 37.6272 -122.3731 218° Southwest 150 173 200 -600 Descending Oakland Center
10:18PM 37.6167 -122.3667 211° Southwest  Level FlightAware Approximate
10:25PM 37.6191 -122.3752 211° Southwest  Level Estimated